sensor_id;sensor_type;location;lat;lon;timestamp;temperature;humidity
12305;DHT22;6215;51.258;9.386;2022-07-06T00:00:20;16.60;99.90
12305;DHT22;6215;51.258;9.386;2022-07-06T00:02:47;16.60;99.90
12305;DHT22;6215;51.258;9.386;2022-07-06T00:05:14;16.50;99.90
12305;DHT22;6215;51.258;9.386;2022-07-06T00:07:40;16.30;99.90
12305;DHT22;6215;51.258;9.386;2022-07-06T00:10:09;16.30;99.90
12305;DHT22;6215;51.258;9.386;2022-07-06T00:12:35;16.20;99.90
12305;DHT22;6215;51.258;9.386;2022-07-06T00:15:02;16.10;99.90
12305;DHT22;6215;51.258;9.386;2022-07-06T00:17:30;16.00;99.90
12305;DHT22;6215;51.258;9.386;2022-07-06T00:19:57;16.00;99.90
12305;DHT22;6215;51.258;9.386;2022-07-06T00:22:24;15.90;99.90
12305;DHT22;6215;51.258;9.386;2022-07-06T00:24:50;15.90;99.90
12305;DHT22;6215;51.258;9.386;2022-07-06T00:27:18;15.90;99.90
12305;DHT22;6215;51.258;9.386;2022-07-06T00:29:45;15.90;99.90
12305;DHT22;6215;51.258;9.386;2022-07-06T00:32:12;15.80;99.90
12305;DHT22;6215;51.258;9.386;2022-07-06T00:34:38;15.80;99.90
12305;DHT22;6215;51.258;9.386;2022-07-06T00:37:05;15.70;99.90
12305;DHT22;6215;51.258;9.386;2022-07-06T00:39:32;15.70;99.90
12305;DHT22;6215;51.258;9.386;2022-07-06T00:41:59;15.70;99.90
12305;DHT22;6215;51.258;9.386;2022-07-06T00:47:09;15.60;99.90
12305;DHT22;6215;51.258;9.386;2022-07-06T00:49:35;15.40;99.90
12305;DHT22;6215;51.258;9.386;2022-07-06T00:52:19;15.20;99.90
12305;DHT22;6215;51.258;9.386;2022-07-06T00:54:46;15.10;99.90
12305;DHT22;6215;51.258;9.386;2022-07-06T00:57:13;15.00;99.90
12305;DHT22;6215;51.258;9.386;2022-07-06T00:59:40;14.80;99.90
12305;DHT22;6215;51.258;9.386;2022-07-06T01:02:09;14.80;99.90
12305;DHT22;6215;51.258;9.386;2022-07-06T01:04:35;14.60;99.90
12305;DHT22;6215;51.258;9.386;2022-07-06T01:07:02;14.40;99.90
12305;DHT22;6215;51.258;9.386;2022-07-06T01:09:29;14.40;99.90
12305;DHT22;6215;51.258;9.386;2022-07-06T01:11:56;14.30;99.90
12305;DHT22;6215;51.258;9.386;2022-07-06T01:14:22;14.20;99.90
12305;DHT22;6215;51.258;9.386;2022-07-06T01:16:50;14.20;99.90
12305;DHT22;6215;51.258;9.386;2022-07-06T01:19:18;14.10;99.90
12305;DHT22;6215;51.258;9.386;2022-07-06T01:21:46;14.00;99.90
12305;DHT22;6215;51.258;9.386;2022-07-06T01:24:13;14.00;99.90
12305;DHT22;6215;51.258;9.386;2022-07-06T01:26:40;13.90;99.90
12305;DHT22;6215;51.258;9.386;2022-07-06T01:29:06;13.90;99.90
12305;DHT22;6215;51.258;9.386;2022-07-06T01:31:33;14.10;99.90
12305;DHT22;6215;51.258;9.386;2022-07-06T01:34:00;13.80;99.90
12305;DHT22;6215;51.258;9.386;2022-07-06T01:36:26;13.70;99.90
12305;DHT22;6215;51.258;9.386;2022-07-06T01:38:55;13.70;99.90
12305;DHT22;6215;51.258;9.386;2022-07-06T01:41:23;13.70;99.90
12305;DHT22;6215;51.258;9.386;2022-07-06T01:43:50;13.60;99.90
12305;DHT22;6215;51.258;9.386;2022-07-06T01:46:16;13.60;99.90
12305;DHT22;6215;51.258;9.386;2022-07-06T01:48:44;13.50;99.90
12305;DHT22;6215;51.258;9.386;2022-07-06T01:51:11;13.50;99.90
12305;DHT22;6215;51.258;9.386;2022-07-06T01:53:38;13.50;99.90
12305;DHT22;6215;51.258;9.386;2022-07-06T01:56:07;13.40;99.90
12305;DHT22;6215;51.258;9.386;2022-07-06T01:58:33;13.50;99.90
12305;DHT22;6215;51.258;9.386;2022-07-06T02:01:00;13.50;99.90
12305;DHT22;6215;51.258;9.386;2022-07-06T02:03:27;13.50;99.90
12305;DHT22;6215;51.258;9.386;2022-07-06T02:05:54;13.50;99.90
12305;DHT22;6215;51.258;9.386;2022-07-06T02:08:23;13.60;99.90
12305;DHT22;6215;51.258;9.386;2022-07-06T02:10:50;13.50;99.90
12305;DHT22;6215;51.258;9.386;2022-07-06T02:13:19;13.50;99.90
12305;DHT22;6215;51.258;9.386;2022-07-06T02:15:46;13.50;99.90
12305;DHT22;6215;51.258;9.386;2022-07-06T02:18:13;13.50;99.90
12305;DHT22;6215;51.258;9.386;2022-07-06T02:20:39;13.50;99.90
12305;DHT22;6215;51.258;9.386;2022-07-06T02:23:06;13.50;99.90
12305;DHT22;6215;51.258;9.386;2022-07-06T02:25:33;13.60;99.90
12305;DHT22;6215;51.258;9.386;2022-07-06T02:28:00;13.60;99.90
12305;DHT22;6215;51.258;9.386;2022-07-06T02:30:28;13.60;99.90
12305;DHT22;6215;51.258;9.386;2022-07-06T02:33:11;13.60;99.90
12305;DHT22;6215;51.258;9.386;2022-07-06T02:35:38;13.50;99.90
12305;DHT22;6215;51.258;9.386;2022-07-06T02:38:08;13.60;99.90
12305;DHT22;6215;51.258;9.386;2022-07-06T02:40:34;13.60;99.90
12305;DHT22;6215;51.258;9.386;2022-07-06T02:43:01;13.60;99.90
12305;DHT22;6215;51.258;9.386;2022-07-06T02:45:28;13.60;99.90
12305;DHT22;6215;51.258;9.386;2022-07-06T02:47:55;13.60;99.90
12305;DHT22;6215;51.258;9.386;2022-07-06T02:50:24;13.60;99.90
12305;DHT22;6215;51.258;9.386;2022-07-06T02:52:53;13.60;99.90
12305;DHT22;6215;51.258;9.386;2022-07-06T02:55:20;13.60;99.90
12305;DHT22;6215;51.258;9.386;2022-07-06T02:57:47;13.60;99.90
12305;DHT22;6215;51.258;9.386;2022-07-06T03:00:13;13.60;99.90
12305;DHT22;6215;51.258;9.386;2022-07-06T03:02:40;13.60;99.90
12305;DHT22;6215;51.258;9.386;2022-07-06T03:05:07;13.60;99.90
12305;DHT22;6215;51.258;9.386;2022-07-06T03:07:35;13.60;99.90
12305;DHT22;6215;51.258;9.386;2022-07-06T03:10:02;13.50;99.90
12305;DHT22;6215;51.258;9.386;2022-07-06T03:12:29;13.60;99.90
12305;DHT22;6215;51.258;9.386;2022-07-06T03:14:55;13.50;99.90
12305;DHT22;6215;51.258;9.386;2022-07-06T03:17:22;13.70;99.90
12305;DHT22;6215;51.258;9.386;2022-07-06T03:19:48;13.70;99.90
12305;DHT22;6215;51.258;9.386;2022-07-06T03:22:15;13.30;99.90
12305;DHT22;6215;51.258;9.386;2022-07-06T03:24:43;13.40;99.90
12305;DHT22;6215;51.258;9.386;2022-07-06T03:27:10;13.50;99.90
12305;DHT22;6215;51.258;9.386;2022-07-06T03:29:36;13.50;99.90
12305;DHT22;6215;51.258;9.386;2022-07-06T03:32:03;13.50;99.90
12305;DHT22;6215;51.258;9.386;2022-07-06T03:34:30;13.50;99.90
12305;DHT22;6215;51.258;9.386;2022-07-06T03:36:56;13.50;99.90
12305;DHT22;6215;51.258;9.386;2022-07-06T03:39:23;13.60;99.90
12305;DHT22;6215;51.258;9.386;2022-07-06T03:41:51;13.60;99.90
12305;DHT22;6215;51.258;9.386;2022-07-06T03:44:18;13.60;99.90
12305;DHT22;6215;51.258;9.386;2022-07-06T03:46:44;13.60;99.90
12305;DHT22;6215;51.258;9.386;2022-07-06T03:49:11;13.60;99.90
12305;DHT22;6215;51.258;9.386;2022-07-06T03:51:38;13.60;99.90
12305;DHT22;6215;51.258;9.386;2022-07-06T03:54:05;13.60;99.90
12305;DHT22;6215;51.258;9.386;2022-07-06T03:56:32;13.60;99.90
12305;DHT22;6215;51.258;9.386;2022-07-06T03:59:02;13.60;99.90
12305;DHT22;6215;51.258;9.386;2022-07-06T04:01:29;13.60;99.90
12305;DHT22;6215;51.258;9.386;2022-07-06T04:03:56;13.60;99.90
12305;DHT22;6215;51.258;9.386;2022-07-06T04:06:23;13.50;99.90
12305;DHT22;6215;51.258;9.386;2022-07-06T04:09:08;13.50;99.90
12305;DHT22;6215;51.258;9.386;2022-07-06T04:11:34;13.50;99.90
12305;DHT22;6215;51.258;9.386;2022-07-06T04:14:01;13.30;99.90
12305;DHT22;6215;51.258;9.386;2022-07-06T04:16:28;13.40;99.90
12305;DHT22;6215;51.258;9.386;2022-07-06T04:18:55;13.30;99.90
12305;DHT22;6215;51.258;9.386;2022-07-06T04:21:22;13.30;99.90
12305;DHT22;6215;51.258;9.386;2022-07-06T04:26:31;13.40;99.90
12305;DHT22;6215;51.258;9.386;2022-07-06T04:29:00;13.40;99.90
12305;DHT22;6215;51.258;9.386;2022-07-06T04:31:27;13.40;99.90
12305;DHT22;6215;51.258;9.386;2022-07-06T04:33:53;13.40;99.90
12305;DHT22;6215;51.258;9.386;2022-07-06T04:36:20;13.50;99.90
12305;DHT22;6215;51.258;9.386;2022-07-06T04:38:47;13.50;99.90
12305;DHT22;6215;51.258;9.386;2022-07-06T04:41:13;13.60;99.90
12305;DHT22;6215;51.258;9.386;2022-07-06T04:43:41;13.60;99.90
12305;DHT22;6215;51.258;9.386;2022-07-06T04:46:09;13.80;99.90
12305;DHT22;6215;51.258;9.386;2022-07-06T04:48:35;13.70;99.90
12305;DHT22;6215;51.258;9.386;2022-07-06T04:51:04;13.70;99.90
12305;DHT22;6215;51.258;9.386;2022-07-06T04:53:33;13.70;99.90
12305;DHT22;6215;51.258;9.386;2022-07-06T04:56:00;13.70;99.90
12305;DHT22;6215;51.258;9.386;2022-07-06T04:58:27;13.80;99.90
12305;DHT22;6215;51.258;9.386;2022-07-06T05:00:55;13.80;99.90
12305;DHT22;6215;51.258;9.386;2022-07-06T05:03:21;13.80;99.90
12305;DHT22;6215;51.258;9.386;2022-07-06T05:05:48;13.90;99.90
12305;DHT22;6215;51.258;9.386;2022-07-06T05:08:15;13.90;99.90
12305;DHT22;6215;51.258;9.386;2022-07-06T05:10:41;13.80;99.90
12305;DHT22;6215;51.258;9.386;2022-07-06T05:13:08;14.00;99.90
12305;DHT22;6215;51.258;9.386;2022-07-06T05:15:35;14.10;99.90
12305;DHT22;6215;51.258;9.386;2022-07-06T05:18:03;14.20;99.90
12305;DHT22;6215;51.258;9.386;2022-07-06T05:20:29;14.20;99.90
12305;DHT22;6215;51.258;9.386;2022-07-06T05:22:58;14.20;99.90
12305;DHT22;6215;51.258;9.386;2022-07-06T05:25:28;14.20;99.90
12305;DHT22;6215;51.258;9.386;2022-07-06T05:30:39;14.30;99.90
12305;DHT22;6215;51.258;9.386;2022-07-06T05:33:07;14.30;99.90
12305;DHT22;6215;51.258;9.386;2022-07-06T05:35:34;14.40;99.90
12305;DHT22;6215;51.258;9.386;2022-07-06T05:38:01;14.50;99.90
12305;DHT22;6215;51.258;9.386;2022-07-06T05:40:27;14.50;99.90
12305;DHT22;6215;51.258;9.386;2022-07-06T05:42:54;14.40;99.90
12305;DHT22;6215;51.258;9.386;2022-07-06T05:45:21;14.50;99.90
12305;DHT22;6215;51.258;9.386;2022-07-06T05:47:48;14.50;99.90
12305;DHT22;6215;51.258;9.386;2022-07-06T05:50:33;14.50;99.90
12305;DHT22;6215;51.258;9.386;2022-07-06T05:53:01;14.60;99.90
12305;DHT22;6215;51.258;9.386;2022-07-06T05:55:28;14.70;99.90
12305;DHT22;6215;51.258;9.386;2022-07-06T05:57:55;15.00;99.90
12305;DHT22;6215;51.258;9.386;2022-07-06T06:00:22;15.00;99.90
12305;DHT22;6215;51.258;9.386;2022-07-06T06:02:49;15.10;99.90
12305;DHT22;6215;51.258;9.386;2022-07-06T06:05:19;15.60;99.90
12305;DHT22;6215;51.258;9.386;2022-07-06T06:07:47;16.20;99.90
12305;DHT22;6215;51.258;9.386;2022-07-06T06:10:16;16.30;99.90
12305;DHT22;6215;51.258;9.386;2022-07-06T06:12:44;16.20;99.90
12305;DHT22;6215;51.258;9.386;2022-07-06T06:15:11;16.20;99.90
12305;DHT22;6215;51.258;9.386;2022-07-06T06:17:38;16.00;99.90
12305;DHT22;6215;51.258;9.386;2022-07-06T06:20:06;15.80;99.90
12305;DHT22;6215;51.258;9.386;2022-07-06T06:22:43;15.70;99.90
12305;DHT22;6215;51.258;9.386;2022-07-06T06:25:11;15.70;99.90
12305;DHT22;6215;51.258;9.386;2022-07-06T06:27:38;15.60;99.90
12305;DHT22;6215;51.258;9.386;2022-07-06T06:30:06;15.60;99.90
12305;DHT22;6215;51.258;9.386;2022-07-06T06:32:33;15.70;99.90
12305;DHT22;6215;51.258;9.386;2022-07-06T06:34:59;15.70;99.90
12305;DHT22;6215;51.258;9.386;2022-07-06T06:37:26;15.50;99.90
12305;DHT22;6215;51.258;9.386;2022-07-06T06:39:53;15.70;99.90
12305;DHT22;6215;51.258;9.386;2022-07-06T06:42:21;15.80;99.90
12305;DHT22;6215;51.258;9.386;2022-07-06T06:44:48;16.00;99.90
12305;DHT22;6215;51.258;9.386;2022-07-06T06:47:14;15.90;99.90
12305;DHT22;6215;51.258;9.386;2022-07-06T06:49:41;15.80;99.90
12305;DHT22;6215;51.258;9.386;2022-07-06T06:52:08;15.60;99.90
12305;DHT22;6215;51.258;9.386;2022-07-06T06:54:35;15.70;99.90
12305;DHT22;6215;51.258;9.386;2022-07-06T06:57:01;15.80;99.90
12305;DHT22;6215;51.258;9.386;2022-07-06T06:59:29;15.90;99.90
12305;DHT22;6215;51.258;9.386;2022-07-06T07:01:56;16.20;99.90
12305;DHT22;6215;51.258;9.386;2022-07-06T07:04:23;16.50;99.90
12305;DHT22;6215;51.258;9.386;2022-07-06T07:06:50;16.70;99.90
12305;DHT22;6215;51.258;9.386;2022-07-06T07:09:16;17.00;99.90
12305;DHT22;6215;51.258;9.386;2022-07-06T07:11:46;17.20;99.90
12305;DHT22;6215;51.258;9.386;2022-07-06T07:14:12;17.30;99.90
12305;DHT22;6215;51.258;9.386;2022-07-06T07:16:41;17.30;99.90
12305;DHT22;6215;51.258;9.386;2022-07-06T07:19:08;17.70;99.90
12305;DHT22;6215;51.258;9.386;2022-07-06T07:21:34;18.10;99.90
12305;DHT22;6215;51.258;9.386;2022-07-06T07:24:01;18.40;99.90
12305;DHT22;6215;51.258;9.386;2022-07-06T07:26:30;18.60;99.90
12305;DHT22;6215;51.258;9.386;2022-07-06T07:28:57;18.70;99.90
12305;DHT22;6215;51.258;9.386;2022-07-06T07:31:24;18.50;99.90
12305;DHT22;6215;51.258;9.386;2022-07-06T07:33:52;18.70;99.90
12305;DHT22;6215;51.258;9.386;2022-07-06T07:36:22;18.70;99.90
12305;DHT22;6215;51.258;9.386;2022-07-06T07:38:49;18.80;99.90
12305;DHT22;6215;51.258;9.386;2022-07-06T07:41:15;18.80;99.90
12305;DHT22;6215;51.258;9.386;2022-07-06T07:43:42;18.50;99.90
12305;DHT22;6215;51.258;9.386;2022-07-06T07:46:09;18.60;99.90
12305;DHT22;6215;51.258;9.386;2022-07-06T07:48:36;18.50;99.90
12305;DHT22;6215;51.258;9.386;2022-07-06T07:51:05;18.10;99.90
12305;DHT22;6215;51.258;9.386;2022-07-06T07:53:32;17.80;99.90
12305;DHT22;6215;51.258;9.386;2022-07-06T07:55:59;17.80;99.90
12305;DHT22;6215;51.258;9.386;2022-07-06T07:58:26;17.90;99.90
12305;DHT22;6215;51.258;9.386;2022-07-06T08:00:53;18.00;99.90
12305;DHT22;6215;51.258;9.386;2022-07-06T08:03:20;18.20;99.90
12305;DHT22;6215;51.258;9.386;2022-07-06T08:05:47;18.20;99.90
12305;DHT22;6215;51.258;9.386;2022-07-06T08:08:15;18.20;99.90
12305;DHT22;6215;51.258;9.386;2022-07-06T08:10:42;18.00;99.90
12305;DHT22;6215;51.258;9.386;2022-07-06T08:13:10;17.90;99.90
12305;DHT22;6215;51.258;9.386;2022-07-06T08:15:37;18.30;99.90
12305;DHT22;6215;51.258;9.386;2022-07-06T08:18:03;18.90;99.90
12305;DHT22;6215;51.258;9.386;2022-07-06T08:20:34;19.80;99.90
12305;DHT22;6215;51.258;9.386;2022-07-06T08:23:01;19.80;99.90
12305;DHT22;6215;51.258;9.386;2022-07-06T08:25:30;19.80;99.90
12305;DHT22;6215;51.258;9.386;2022-07-06T08:27:57;19.60;99.90
12305;DHT22;6215;51.258;9.386;2022-07-06T08:30:25;19.40;99.90
12305;DHT22;6215;51.258;9.386;2022-07-06T08:32:56;19.80;99.90
12305;DHT22;6215;51.258;9.386;2022-07-06T08:35:23;20.30;99.90
12305;DHT22;6215;51.258;9.386;2022-07-06T08:37:53;19.60;99.90
12305;DHT22;6215;51.258;9.386;2022-07-06T08:40:24;19.30;99.90
12305;DHT22;6215;51.258;9.386;2022-07-06T08:42:53;18.90;99.90
12305;DHT22;6215;51.258;9.386;2022-07-06T08:45:20;18.90;99.90
12305;DHT22;6215;51.258;9.386;2022-07-06T08:47:48;18.70;99.90
12305;DHT22;6215;51.258;9.386;2022-07-06T08:50:15;18.60;99.90
12305;DHT22;6215;51.258;9.386;2022-07-06T08:52:42;18.70;99.90
12305;DHT22;6215;51.258;9.386;2022-07-06T08:55:13;18.50;99.90
12305;DHT22;6215;51.258;9.386;2022-07-06T08:57:40;18.20;99.90
12305;DHT22;6215;51.258;9.386;2022-07-06T09:00:09;18.30;99.90
12305;DHT22;6215;51.258;9.386;2022-07-06T09:02:36;18.20;99.90
12305;DHT22;6215;51.258;9.386;2022-07-06T09:05:03;18.20;99.90
12305;DHT22;6215;51.258;9.386;2022-07-06T09:07:30;18.20;99.90
12305;DHT22;6215;51.258;9.386;2022-07-06T09:09:57;18.30;99.90
12305;DHT22;6215;51.258;9.386;2022-07-06T09:12:25;18.40;99.90
12305;DHT22;6215;51.258;9.386;2022-07-06T09:14:53;18.80;99.90
12305;DHT22;6215;51.258;9.386;2022-07-06T09:17:23;19.00;99.90
12305;DHT22;6215;51.258;9.386;2022-07-06T09:19:51;19.60;99.90
12305;DHT22;6215;51.258;9.386;2022-07-06T09:22:25;19.80;99.90
12305;DHT22;6215;51.258;9.386;2022-07-06T09:24:52;19.70;99.90
12305;DHT22;6215;51.258;9.386;2022-07-06T09:27:19;19.80;99.90
12305;DHT22;6215;51.258;9.386;2022-07-06T09:29:45;19.90;99.90
12305;DHT22;6215;51.258;9.386;2022-07-06T09:32:12;20.60;99.90
12305;DHT22;6215;51.258;9.386;2022-07-06T09:34:47;20.80;99.90
12305;DHT22;6215;51.258;9.386;2022-07-06T09:37:14;21.10;97.60
12305;DHT22;6215;51.258;9.386;2022-07-06T09:39:41;21.50;97.10
12305;DHT22;6215;51.258;9.386;2022-07-06T09:42:09;21.60;96.60
12305;DHT22;6215;51.258;9.386;2022-07-06T09:44:36;21.40;97.10
12305;DHT22;6215;51.258;9.386;2022-07-06T09:47:04;20.80;97.90
12305;DHT22;6215;51.258;9.386;2022-07-06T09:49:31;20.70;98.70
12305;DHT22;6215;51.258;9.386;2022-07-06T09:51:59;20.60;98.60
12305;DHT22;6215;51.258;9.386;2022-07-06T09:54:26;20.70;97.70
12305;DHT22;6215;51.258;9.386;2022-07-06T09:56:54;20.70;98.10
12305;DHT22;6215;51.258;9.386;2022-07-06T09:59:21;20.40;98.60
12305;DHT22;6215;51.258;9.386;2022-07-06T10:01:50;19.90;99.60
12305;DHT22;6215;51.258;9.386;2022-07-06T10:04:17;19.50;99.90
12305;DHT22;6215;51.258;9.386;2022-07-06T10:06:45;19.50;99.90
12305;DHT22;6215;51.258;9.386;2022-07-06T10:09:14;19.60;99.90
12305;DHT22;6215;51.258;9.386;2022-07-06T10:11:41;19.90;99.90
12305;DHT22;6215;51.258;9.386;2022-07-06T10:14:10;20.10;99.90
12305;DHT22;6215;51.258;9.386;2022-07-06T10:16:39;20.40;98.70
12305;DHT22;6215;51.258;9.386;2022-07-06T10:19:06;20.90;98.60
12305;DHT22;6215;51.258;9.386;2022-07-06T10:21:34;21.10;98.60
12305;DHT22;6215;51.258;9.386;2022-07-06T10:24:02;20.70;99.40
12305;DHT22;6215;51.258;9.386;2022-07-06T10:26:30;20.10;99.90
12305;DHT22;6215;51.258;9.386;2022-07-06T10:29:05;19.70;99.90
12305;DHT22;6215;51.258;9.386;2022-07-06T10:31:32;19.60;99.90
12305;DHT22;6215;51.258;9.386;2022-07-06T10:34:00;19.70;99.90
12305;DHT22;6215;51.258;9.386;2022-07-06T10:36:28;19.90;99.90
12305;DHT22;6215;51.258;9.386;2022-07-06T10:39:00;20.20;99.90
12305;DHT22;6215;51.258;9.386;2022-07-06T10:41:48;20.20;99.80
12305;DHT22;6215;51.258;9.386;2022-07-06T10:44:15;20.50;98.90
12305;DHT22;6215;51.258;9.386;2022-07-06T10:46:49;20.90;98.50
12305;DHT22;6215;51.258;9.386;2022-07-06T10:49:16;21.20;97.90
12305;DHT22;6215;51.258;9.386;2022-07-06T10:51:43;21.40;96.60
12305;DHT22;6215;51.258;9.386;2022-07-06T10:54:10;21.40;96.60
12305;DHT22;6215;51.258;9.386;2022-07-06T10:56:40;20.80;97.50
12305;DHT22;6215;51.258;9.386;2022-07-06T10:59:12;20.20;98.50
12305;DHT22;6215;51.258;9.386;2022-07-06T11:01:39;19.90;98.90
12305;DHT22;6215;51.258;9.386;2022-07-06T11:04:07;19.90;98.70
12305;DHT22;6215;51.258;9.386;2022-07-06T11:06:35;19.90;98.10
12305;DHT22;6215;51.258;9.386;2022-07-06T11:09:03;20.10;98.50
12305;DHT22;6215;51.258;9.386;2022-07-06T11:11:42;20.60;96.40
12305;DHT22;6215;51.258;9.386;2022-07-06T11:14:13;20.70;96.10
12305;DHT22;6215;51.258;9.386;2022-07-06T11:16:40;20.70;96.00
12305;DHT22;6215;51.258;9.386;2022-07-06T11:19:26;21.10;96.00
12305;DHT22;6215;51.258;9.386;2022-07-06T11:21:54;20.90;95.60
12305;DHT22;6215;51.258;9.386;2022-07-06T11:24:23;21.00;95.00
12305;DHT22;6215;51.258;9.386;2022-07-06T11:26:53;21.20;94.50
12305;DHT22;6215;51.258;9.386;2022-07-06T11:29:22;21.20;93.30
12305;DHT22;6215;51.258;9.386;2022-07-06T11:31:50;21.30;93.50
12305;DHT22;6215;51.258;9.386;2022-07-06T11:34:18;21.30;94.10
12305;DHT22;6215;51.258;9.386;2022-07-06T11:36:45;21.50;92.40
12305;DHT22;6215;51.258;9.386;2022-07-06T11:39:14;21.80;91.70
12305;DHT22;6215;51.258;9.386;2022-07-06T11:41:40;21.90;90.90
12305;DHT22;6215;51.258;9.386;2022-07-06T11:44:07;21.80;90.90
12305;DHT22;6215;51.258;9.386;2022-07-06T11:46:35;21.40;91.70
12305;DHT22;6215;51.258;9.386;2022-07-06T11:49:03;21.30;91.70
12305;DHT22;6215;51.258;9.386;2022-07-06T11:51:31;21.20;92.60
12305;DHT22;6215;51.258;9.386;2022-07-06T11:53:58;21.10;92.30
12305;DHT22;6215;51.258;9.386;2022-07-06T11:56:26;21.10;93.30
12305;DHT22;6215;51.258;9.386;2022-07-06T11:58:53;21.10;92.50
12305;DHT22;6215;51.258;9.386;2022-07-06T12:01:35;20.90;92.30
12305;DHT22;6215;51.258;9.386;2022-07-06T12:04:06;20.80;92.80
12305;DHT22;6215;51.258;9.386;2022-07-06T12:06:33;20.70;93.20
12305;DHT22;6215;51.258;9.386;2022-07-06T12:09:00;20.80;93.70
12305;DHT22;6215;51.258;9.386;2022-07-06T12:14:01;20.80;93.10
12305;DHT22;6215;51.258;9.386;2022-07-06T12:16:29;20.90;93.00
12305;DHT22;6215;51.258;9.386;2022-07-06T12:18:57;20.60;93.00
12305;DHT22;6215;51.258;9.386;2022-07-06T12:21:23;20.70;93.30
12305;DHT22;6215;51.258;9.386;2022-07-06T12:23:51;20.60;93.60
12305;DHT22;6215;51.258;9.386;2022-07-06T12:26:19;20.20;95.30
12305;DHT22;6215;51.258;9.386;2022-07-06T12:28:46;19.60;96.30
12305;DHT22;6215;51.258;9.386;2022-07-06T12:33:57;19.30;98.10
12305;DHT22;6215;51.258;9.386;2022-07-06T12:36:24;19.20;98.70
12305;DHT22;6215;51.258;9.386;2022-07-06T12:38:50;19.30;99.30
12305;DHT22;6215;51.258;9.386;2022-07-06T12:41:27;19.30;99.60
12305;DHT22;6215;51.258;9.386;2022-07-06T12:44:04;19.30;99.30
12305;DHT22;6215;51.258;9.386;2022-07-06T12:46:32;19.50;99.80
12305;DHT22;6215;51.258;9.386;2022-07-06T12:49:02;19.90;99.80
12305;DHT22;6215;51.258;9.386;2022-07-06T12:51:29;20.10;98.60
12305;DHT22;6215;51.258;9.386;2022-07-06T12:54:11;20.50;98.50
12305;DHT22;6215;51.258;9.386;2022-07-06T12:59:21;20.70;97.60
12305;DHT22;6215;51.258;9.386;2022-07-06T13:01:48;20.90;98.10
12305;DHT22;6215;51.258;9.386;2022-07-06T13:04:17;20.70;97.00
12305;DHT22;6215;51.258;9.386;2022-07-06T13:06:44;20.70;97.10
12305;DHT22;6215;51.258;9.386;2022-07-06T13:09:10;20.70;97.70
12305;DHT22;6215;51.258;9.386;2022-07-06T13:11:38;20.50;97.90
12305;DHT22;6215;51.258;9.386;2022-07-06T13:14:05;20.50;98.00
12305;DHT22;6215;51.258;9.386;2022-07-06T13:16:32;20.40;98.00
12305;DHT22;6215;51.258;9.386;2022-07-06T13:18:59;20.20;97.10
12305;DHT22;6215;51.258;9.386;2022-07-06T13:21:27;20.20;98.10
12305;DHT22;6215;51.258;9.386;2022-07-06T13:23:54;20.20;98.50
12305;DHT22;6215;51.258;9.386;2022-07-06T13:26:21;20.20;98.40
12305;DHT22;6215;51.258;9.386;2022-07-06T13:28:47;20.50;98.20
12305;DHT22;6215;51.258;9.386;2022-07-06T13:31:14;20.70;97.70
12305;DHT22;6215;51.258;9.386;2022-07-06T13:33:41;21.00;96.70
12305;DHT22;6215;51.258;9.386;2022-07-06T13:36:08;21.20;96.90
12305;DHT22;6215;51.258;9.386;2022-07-06T13:38:36;21.30;96.20
12305;DHT22;6215;51.258;9.386;2022-07-06T13:41:02;21.40;97.20
12305;DHT22;6215;51.258;9.386;2022-07-06T13:43:29;21.60;97.00
12305;DHT22;6215;51.258;9.386;2022-07-06T13:46:01;21.50;96.90
12305;DHT22;6215;51.258;9.386;2022-07-06T13:48:28;21.30;97.00
12305;DHT22;6215;51.258;9.386;2022-07-06T13:50:55;21.20;97.30
12305;DHT22;6215;51.258;9.386;2022-07-06T13:53:21;21.10;97.40
12305;DHT22;6215;51.258;9.386;2022-07-06T13:55:49;21.10;97.90
12305;DHT22;6215;51.258;9.386;2022-07-06T13:58:16;20.90;98.40
12305;DHT22;6215;51.258;9.386;2022-07-06T14:00:43;20.90;98.00
12305;DHT22;6215;51.258;9.386;2022-07-06T14:03:09;20.50;98.50
12305;DHT22;6215;51.258;9.386;2022-07-06T14:05:36;20.40;99.50
12305;DHT22;6215;51.258;9.386;2022-07-06T14:08:03;20.60;99.40
12305;DHT22;6215;51.258;9.386;2022-07-06T14:10:30;20.80;99.10
12305;DHT22;6215;51.258;9.386;2022-07-06T14:12:58;21.00;98.70
12305;DHT22;6215;51.258;9.386;2022-07-06T14:15:24;20.80;98.40
12305;DHT22;6215;51.258;9.386;2022-07-06T14:17:51;20.90;98.50
12305;DHT22;6215;51.258;9.386;2022-07-06T14:20:18;21.10;98.90
12305;DHT22;6215;51.258;9.386;2022-07-06T14:22:44;21.10;98.80
12305;DHT22;6215;51.258;9.386;2022-07-06T14:25:11;21.20;98.50
12305;DHT22;6215;51.258;9.386;2022-07-06T14:27:38;21.40;97.80
12305;DHT22;6215;51.258;9.386;2022-07-06T14:30:07;21.50;97.40
12305;DHT22;6215;51.258;9.386;2022-07-06T14:32:35;21.40;97.50
12305;DHT22;6215;51.258;9.386;2022-07-06T14:35:02;21.30;97.90
12305;DHT22;6215;51.258;9.386;2022-07-06T14:37:28;21.30;98.00
12305;DHT22;6215;51.258;9.386;2022-07-06T14:39:55;21.10;98.00
12305;DHT22;6215;51.258;9.386;2022-07-06T14:42:21;20.90;98.40
12305;DHT22;6215;51.258;9.386;2022-07-06T14:44:48;20.80;98.70
12305;DHT22;6215;51.258;9.386;2022-07-06T14:47:17;20.80;98.80
12305;DHT22;6215;51.258;9.386;2022-07-06T14:49:44;20.80;99.10
12305;DHT22;6215;51.258;9.386;2022-07-06T14:52:11;20.70;98.90
12305;DHT22;6215;51.258;9.386;2022-07-06T14:54:38;20.70;99.30
12305;DHT22;6215;51.258;9.386;2022-07-06T14:57:04;20.90;98.50
12305;DHT22;6215;51.258;9.386;2022-07-06T14:59:33;21.30;98.20
12305;DHT22;6215;51.258;9.386;2022-07-06T15:02:00;21.30;97.60
12305;DHT22;6215;51.258;9.386;2022-07-06T15:04:28;21.40;97.70
12305;DHT22;6215;51.258;9.386;2022-07-06T15:06:55;21.30;97.40
12305;DHT22;6215;51.258;9.386;2022-07-06T15:09:22;21.00;97.80
12305;DHT22;6215;51.258;9.386;2022-07-06T15:11:52;20.90;98.10
12305;DHT22;6215;51.258;9.386;2022-07-06T15:14:19;21.00;98.00
12305;DHT22;6215;51.258;9.386;2022-07-06T15:16:46;20.90;97.70
12305;DHT22;6215;51.258;9.386;2022-07-06T15:19:13;20.70;98.10
12305;DHT22;6215;51.258;9.386;2022-07-06T15:21:42;20.50;98.80
12305;DHT22;6215;51.258;9.386;2022-07-06T15:24:08;20.50;98.80
12305;DHT22;6215;51.258;9.386;2022-07-06T15:26:35;20.40;98.80
12305;DHT22;6215;51.258;9.386;2022-07-06T15:29:02;20.60;99.00
12305;DHT22;6215;51.258;9.386;2022-07-06T15:31:28;20.80;98.40
12305;DHT22;6215;51.258;9.386;2022-07-06T15:33:56;21.10;98.20
12305;DHT22;6215;51.258;9.386;2022-07-06T15:36:26;21.40;96.60
12305;DHT22;6215;51.258;9.386;2022-07-06T15:38:54;21.50;96.90
12305;DHT22;6215;51.258;9.386;2022-07-06T15:41:21;21.60;96.10
12305;DHT22;6215;51.258;9.386;2022-07-06T15:43:48;21.50;96.50
12305;DHT22;6215;51.258;9.386;2022-07-06T15:46:15;21.20;96.40
12305;DHT22;6215;51.258;9.386;2022-07-06T15:48:42;21.00;96.60
12305;DHT22;6215;51.258;9.386;2022-07-06T15:51:08;21.10;97.10
12305;DHT22;6215;51.258;9.386;2022-07-06T15:53:35;20.90;96.60
12305;DHT22;6215;51.258;9.386;2022-07-06T15:56:13;20.80;97.00
12305;DHT22;6215;51.258;9.386;2022-07-06T15:58:40;21.00;97.00
12305;DHT22;6215;51.258;9.386;2022-07-06T16:01:07;21.30;97.10
12305;DHT22;6215;51.258;9.386;2022-07-06T16:03:33;21.30;96.20